Time;durP1;ratioP1;P1;durP2;ratioP2;P2;SDS_P1;SDS_P2;PMS_P1;PMS_P2;Temp;Humidity;BMP_temperature;BMP_pressure;BME280_temperature;BME280_humidity;BME280_pressure;Samples;Min_cycle;Max_cycle;Signal;HPM_P1;HPM_P2
2020/12/19 00:00:13;;;;;;;21.93;12.20;;;;;;;;;;5021001;28;20195;-73
2020/12/19 00:02:38;;;;;;;21.40;12.50;;;;;;;;;;5011479;28;20333;-73
2020/12/19 00:05:05;;;;;;;20.37;13.17;;;;;;;;;;5023036;28;20186;-73
2020/12/19 00:07:30;;;;;;;18.53;11.70;;;;;;;;;;5012040;28;20267;-73
2020/12/19 00:09:56;;;;;;;22.03;13.87;;;;;;;;;;5026966;28;20605;-73
2020/12/19 00:12:22;;;;;;;23.90;13.17;;;;;;;;;;5018155;28;20212;-73
2020/12/19 00:14:48;;;;;;;21.07;11.73;;;;;;;;;;5024276;28;20202;-72
2020/12/19 00:17:14;;;;;;;18.47;11.80;;;;;;;;;;5011416;28;20296;-73
2020/12/19 00:19:39;;;;;;;21.97;12.73;;;;;;;;;;5022912;28;20407;-73
2020/12/19 00:22:07;;;;;;;22.73;12.60;;;;;;;;;;5021800;28;20179;-73
2020/12/19 00:24:32;;;;;;;19.57;12.83;;;;;;;;;;5013967;28;20201;-73
2020/12/19 00:26:58;;;;;;;22.43;13.07;;;;;;;;;;5024907;28;20186;-73
2020/12/19 00:29:23;;;;;;;20.73;12.87;;;;;;;;;;5015747;28;20199;-73
2020/12/19 00:31:48;;;;;;;23.30;14.23;;;;;;;;;;5025719;28;20685;-73
2020/12/19 00:34:14;;;;;;;21.00;11.80;;;;;;;;;;5018131;28;20626;-72
2020/12/19 00:36:39;;;;;;;21.67;13.43;;;;;;;;;;5030848;28;20543;-73
2020/12/19 00:39:05;;;;;;;21.77;13.10;;;;;;;;;;5018733;28;20928;-73
2020/12/19 00:41:31;;;;;;;21.00;13.50;;;;;;;;;;5025119;28;20201;-73
2020/12/19 00:43:56;;;;;;;19.67;12.83;;;;;;;;;;5019666;28;20197;-73
2020/12/19 00:46:22;;;;;;;23.23;13.87;;;;;;;;;;5026040;28;21598;-73
2020/12/19 00:48:48;;;;;;;20.17;13.43;;;;;;;;;;5015614;28;20597;-73
2020/12/19 00:51:15;;;;;;;22.17;14.03;;;;;;;;;;5029920;28;20673;-73
2020/12/19 00:53:44;;;;;;;24.80;14.73;;;;;;;;;;5024741;28;20190;-73
2020/12/19 00:56:17;;;;;;;21.30;13.77;;;;;;;;;;5025637;28;20194;-73
2020/12/19 00:58:42;;;;;;;28.47;15.20;;;;;;;;;;5026724;28;20213;-73
2020/12/19 01:01:07;;;;;;;24.87;14.87;;;;;;;;;;5022306;28;20198;-73
2020/12/19 01:03:33;;;;;;;24.70;13.57;;;;;;;;;;5026796;28;20185;-73
2020/12/19 01:05:58;;;;;;;24.53;14.13;;;;;;;;;;5020050;28;20193;-73
2020/12/19 01:08:23;;;;;;;25.63;14.60;;;;;;;;;;5025767;28;20305;-73
2020/12/19 01:10:49;;;;;;;24.47;13.83;;;;;;;;;;5022150;28;20198;-73
2020/12/19 01:13:14;;;;;;;23.43;14.50;;;;;;;;;;5026631;28;20245;-73
2020/12/19 01:15:39;;;;;;;24.67;14.87;;;;;;;;;;5020735;28;20182;-73
2020/12/19 01:18:05;;;;;;;26.40;15.07;;;;;;;;;;5022913;28;20532;-73
2020/12/19 01:20:30;;;;;;;23.17;14.27;;;;;;;;;;5017348;28;20201;-73
2020/12/19 01:22:55;;;;;;;24.40;14.93;;;;;;;;;;5027659;28;20244;-73
2020/12/19 01:25:21;;;;;;;24.70;15.27;;;;;;;;;;5027513;28;20202;-73
2020/12/19 01:27:46;;;;;;;26.13;14.80;;;;;;;;;;5017504;28;20202;-72
2020/12/19 01:30:11;;;;;;;25.30;16.07;;;;;;;;;;5026390;28;20190;-73
2020/12/19 01:32:37;;;;;;;27.20;15.73;;;;;;;;;;5018049;28;20530;-73
2020/12/19 01:35:02;;;;;;;27.60;16.27;;;;;;;;;;5027440;28;20268;-73
2020/12/19 01:37:27;;;;;;;24.87;15.40;;;;;;;;;;5018408;28;20202;-73
2020/12/19 01:39:53;;;;;;;25.30;14.80;;;;;;;;;;5027699;28;20336;-73
2020/12/19 01:42:18;;;;;;;26.03;15.67;;;;;;;;;;5018818;28;20243;-73
2020/12/19 01:44:43;;;;;;;30.67;16.53;;;;;;;;;;5028069;28;20650;-73
2020/12/19 01:47:10;;;;;;;27.73;16.77;;;;;;;;;;5019274;28;20193;-73
2020/12/19 01:49:37;;;;;;;24.67;16.03;;;;;;;;;;5020373;28;20249;-73
2020/12/19 01:52:05;;;;;;;28.70;16.43;;;;;;;;;;5012388;28;20671;-73
2020/12/19 01:54:30;;;;;;;30.33;17.67;;;;;;;;;;5017105;28;20202;-73
2020/12/19 01:56:58;;;;;;;31.73;17.23;;;;;;;;;;5012292;28;20293;-73
2020/12/19 01:59:25;;;;;;;29.23;17.10;;;;;;;;;;5022689;28;20193;-73
2020/12/19 02:01:54;;;;;;;28.63;16.83;;;;;;;;;;5025403;28;20178;-73
2020/12/19 02:04:22;;;;;;;28.53;17.10;;;;;;;;;;5018556;28;20186;-73
2020/12/19 02:06:50;;;;;;;31.83;17.57;;;;;;;;;;5023471;28;20281;-73
2020/12/19 02:09:17;;;;;;;30.73;17.57;;;;;;;;;;5019054;28;20235;-73
2020/12/19 02:11:44;;;;;;;27.70;17.27;;;;;;;;;;5022659;28;20245;-73
2020/12/19 02:14:10;;;;;;;30.03;17.57;;;;;;;;;;5019786;28;20645;-73
2020/12/19 02:16:36;;;;;;;31.53;17.60;;;;;;;;;;5024627;28;20194;-73
2020/12/19 02:19:12;;;;;;;31.20;17.40;;;;;;;;;;5018882;28;20435;-73
2020/12/19 02:21:38;;;;;;;34.03;19.17;;;;;;;;;;5024477;28;20182;-73
2020/12/19 02:24:03;;;;;;;29.20;17.40;;;;;;;;;;5016169;28;20252;-73
2020/12/19 02:26:29;;;;;;;26.97;16.77;;;;;;;;;;5024260;28;20231;-73
2020/12/19 02:28:54;;;;;;;29.83;17.37;;;;;;;;;;5009427;28;20664;-73
2020/12/19 02:31:19;;;;;;;27.67;17.27;;;;;;;;;;5027723;28;20290;-72
2020/12/19 02:33:45;;;;;;;27.53;16.70;;;;;;;;;;5015161;28;20241;-72
2020/12/19 02:36:10;;;;;;;33.53;17.57;;;;;;;;;;5026039;28;20194;-74
2020/12/19 02:38:35;;;;;;;30.30;17.53;;;;;;;;;;5022970;28;20243;-73
2020/12/19 02:41:01;;;;;;;29.03;17.23;;;;;;;;;;5012021;28;20348;-73
2020/12/19 02:43:26;;;;;;;29.77;17.80;;;;;;;;;;5024845;28;20198;-73
2020/12/19 02:45:51;;;;;;;31.20;17.87;;;;;;;;;;5032583;28;20190;-73
2020/12/19 02:48:32;;;;;;;28.80;17.63;;;;;;;;;;5022870;28;20218;-73
2020/12/19 02:50:57;;;;;;;29.97;17.40;;;;;;;;;;5034877;28;20280;-72
2020/12/19 02:53:23;;;;;;;31.13;17.00;;;;;;;;;;5019218;28;20620;-72
2020/12/19 02:55:48;;;;;;;32.40;18.90;;;;;;;;;;5015668;28;20194;-73
2020/12/19 02:58:13;;;;;;;33.37;18.50;;;;;;;;;;5022804;28;20193;-73
2020/12/19 03:00:39;;;;;;;29.53;17.67;;;;;;;;;;5017838;28;20204;-73
2020/12/19 03:03:04;;;;;;;25.90;16.67;;;;;;;;;;5023775;28;20189;-73
2020/12/19 03:05:30;;;;;;;30.13;16.97;;;;;;;;;;5018267;28;20885;-73
2020/12/19 03:07:55;;;;;;;27.97;17.30;;;;;;;;;;5025670;28;20217;-73
2020/12/19 03:10:21;;;;;;;25.37;16.67;;;;;;;;;;5027189;28;20226;-73
2020/12/19 03:12:46;;;;;;;29.20;17.40;;;;;;;;;;5016619;28;20214;-73
2020/12/19 03:15:11;;;;;;;28.30;17.20;;;;;;;;;;5026906;28;20630;-73
2020/12/19 03:17:37;;;;;;;27.73;16.47;;;;;;;;;;5017043;28;20194;-74
2020/12/19 03:20:03;;;;;;;28.13;17.17;;;;;;;;;;5029694;28;20316;-74
2020/12/19 03:22:29;;;;;;;28.43;16.60;;;;;;;;;;5016098;28;20194;-73
2020/12/19 03:24:54;;;;;;;31.27;16.97;;;;;;;;;;5026158;28;20186;-73
2020/12/19 03:27:19;;;;;;;25.90;17.07;;;;;;;;;;5018377;28;20194;-73
2020/12/19 03:29:45;;;;;;;33.03;17.73;;;;;;;;;;5026982;28;20218;-73
2020/12/19 03:32:10;;;;;;;30.27;18.50;;;;;;;;;;5015723;28;20213;-73
2020/12/19 03:34:35;;;;;;;28.30;18.20;;;;;;;;;;5027827;28;20225;-73
2020/12/19 03:37:02;;;;;;;26.63;16.67;;;;;;;;;;5014568;28;20198;-73
2020/12/19 03:39:27;;;;;;;31.33;17.40;;;;;;;;;;5029571;28;20217;-73
2020/12/19 03:41:52;;;;;;;22.20;15.70;;;;;;;;;;5024939;28;20649;-73
2020/12/19 03:44:18;;;;;;;31.60;18.17;;;;;;;;;;5012880;28;20191;-73
2020/12/19 03:46:43;;;;;;;27.63;17.63;;;;;;;;;;5020678;28;20300;-73
2020/12/19 03:49:08;;;;;;;27.27;17.20;;;;;;;;;;5016301;28;20186;-73
2020/12/19 03:51:34;;;;;;;31.30;17.63;;;;;;;;;;5039207;28;20626;-73
2020/12/19 03:53:59;;;;;;;36.97;18.40;;;;;;;;;;5009184;28;20202;-73
2020/12/19 03:56:25;;;;;;;27.77;17.40;;;;;;;;;;5021591;28;20193;-73
2020/12/19 03:58:50;;;;;;;34.13;19.30;;;;;;;;;;5017290;28;20220;-73
2020/12/19 04:01:15;;;;;;;32.20;19.43;;;;;;;;;;5024413;28;20188;-73
2020/12/19 04:03:41;;;;;;;31.87;18.93;;;;;;;;;;5018332;28;20529;-73
2020/12/19 04:06:06;;;;;;;31.57;18.80;;;;;;;;;;5025857;28;20202;-73
2020/12/19 04:08:31;;;;;;;32.53;19.63;;;;;;;;;;5020193;28;21019;-73
2020/12/19 04:10:57;;;;;;;28.70;18.53;;;;;;;;;;5027924;28;20609;-73
2020/12/19 04:13:22;;;;;;;28.83;18.07;;;;;;;;;;5028994;28;20233;-73
2020/12/19 04:15:47;;;;;;;34.17;20.13;;;;;;;;;;5017990;28;20269;-73
2020/12/19 04:18:13;;;;;;;32.67;18.83;;;;;;;;;;5029165;28;20190;-73
2020/12/19 04:20:38;;;;;;;31.33;19.80;;;;;;;;;;5019362;28;20190;-73
2020/12/19 04:23:03;;;;;;;31.67;20.00;;;;;;;;;;5029792;28;20221;-73
2020/12/19 04:25:28;;;;;;;35.63;20.13;;;;;;;;;;5016254;28;20294;-73
2020/12/19 04:27:54;;;;;;;35.20;20.23;;;;;;;;;;5026996;28;20198;-73
2020/12/19 04:30:19;;;;;;;39.63;20.53;;;;;;;;;;5017088;28;20190;-73
2020/12/19 04:32:44;;;;;;;33.20;19.40;;;;;;;;;;5029663;28;20210;-73
2020/12/19 04:35:10;;;;;;;34.73;19.73;;;;;;;;;;5017433;28;20633;-73
2020/12/19 04:37:36;;;;;;;40.50;20.63;;;;;;;;;;5025532;28;20617;-73
2020/12/19 04:40:02;;;;;;;35.53;20.67;;;;;;;;;;5017558;28;20255;-73
2020/12/19 04:42:27;;;;;;;36.57;21.13;;;;;;;;;;5030739;28;20182;-73
2020/12/19 04:44:52;;;;;;;41.57;21.87;;;;;;;;;;5026174;28;20716;-73
2020/12/19 04:47:18;;;;;;;40.00;21.80;;;;;;;;;;5021055;28;20186;-73
2020/12/19 04:49:45;;;;;;;37.47;21.67;;;;;;;;;;5027211;28;20320;-73
2020/12/19 04:52:11;;;;;;;38.70;21.40;;;;;;;;;;5018678;28;20275;-73
2020/12/19 04:54:36;;;;;;;41.33;23.20;;;;;;;;;;5020011;28;20198;-73
2020/12/19 04:57:03;;;;;;;44.00;22.17;;;;;;;;;;5021504;28;20273;-73
2020/12/19 04:59:28;;;;;;;35.87;21.63;;;;;;;;;;5026560;28;20186;-73
2020/12/19 05:01:54;;;;;;;39.00;21.73;;;;;;;;;;5021514;28;20189;-73
2020/12/19 05:04:19;;;;;;;42.80;22.33;;;;;;;;;;5025367;28;20268;-73
2020/12/19 05:06:45;;;;;;;40.67;22.37;;;;;;;;;;5018759;28;20213;-73
2020/12/19 05:09:10;;;;;;;38.83;21.67;;;;;;;;;;5022419;28;20196;-73
2020/12/19 05:11:36;;;;;;;44.53;22.63;;;;;;;;;;5021168;28;20229;-73
2020/12/19 05:14:06;;;;;;;43.43;23.17;;;;;;;;;;5023840;28;20538;-73
2020/12/19 05:16:33;;;;;;;46.20;23.20;;;;;;;;;;5029297;28;20736;-73
2020/12/19 05:19:06;;;;;;;42.03;22.00;;;;;;;;;;5017659;28;20224;-73
2020/12/19 05:21:32;;;;;;;48.50;24.30;;;;;;;;;;5027761;28;20644;-73
2020/12/19 05:23:57;;;;;;;43.13;23.63;;;;;;;;;;5012689;28;20190;-73
2020/12/19 05:26:23;;;;;;;43.70;23.10;;;;;;;;;;5023104;28;20189;-73
2020/12/19 05:28:48;;;;;;;45.00;23.63;;;;;;;;;;5013939;28;20193;-73
2020/12/19 05:31:14;;;;;;;41.83;23.00;;;;;;;;;;5025799;28;20547;-73
2020/12/19 05:33:42;;;;;;;42.40;22.67;;;;;;;;;;5018405;28;20230;-73
2020/12/19 05:36:18;;;;;;;45.83;23.63;;;;;;;;;;5029563;28;20217;-73
2020/12/19 05:38:43;;;;;;;41.30;21.20;;;;;;;;;;5016842;28;20278;-73
2020/12/19 05:41:13;;;;;;;42.07;22.90;;;;;;;;;;5025548;28;20277;-73
2020/12/19 05:43:48;;;;;;;44.57;24.03;;;;;;;;;;5016997;28;20273;-73
2020/12/19 05:46:40;;;;;;;41.17;23.30;;;;;;;;;;5022718;28;20185;-73
2020/12/19 05:49:08;;;;;;;46.47;23.23;;;;;;;;;;5015398;28;20208;-73
2020/12/19 05:51:35;;;;;;;42.90;22.80;;;;;;;;;;5020042;28;20742;-73
2020/12/19 05:54:12;;;;;;;44.93;21.83;;;;;;;;;;5017793;28;20236;-73
2020/12/19 05:56:42;;;;;;;44.57;22.47;;;;;;;;;;5025351;28;20192;-73
2020/12/19 05:59:15;;;;;;;46.13;23.07;;;;;;;;;;5016637;28;20197;-73
2020/12/19 06:01:43;;;;;;;47.57;23.03;;;;;;;;;;5021746;28;20182;-73
2020/12/19 06:04:09;;;;;;;40.63;21.80;;;;;;;;;;5017551;28;20178;-73
2020/12/19 06:06:39;;;;;;;34.40;20.53;;;;;;;;;;5021819;28;20242;-73
2020/12/19 06:09:07;;;;;;;38.53;22.33;;;;;;;;;;5017857;28;20194;-73
2020/12/19 06:11:48;;;;;;;41.30;23.10;;;;;;;;;;5012246;28;20218;-73
2020/12/19 06:14:19;;;;;;;42.33;22.90;;;;;;;;;;5016226;28;20182;-74
2020/12/19 06:16:48;;;;;;;46.03;23.77;;;;;;;;;;5013096;28;20212;-73
2020/12/19 06:19:23;;;;;;;46.17;21.73;;;;;;;;;;5016133;28;20657;-73
2020/12/19 06:21:54;;;;;;;38.17;20.90;;;;;;;;;;5010139;28;20222;-73
2020/12/19 06:24:44;;;;;;;39.33;22.53;;;;;;;;;;4320836;28;10000844;-74
2020/12/19 06:27:30;;;;;;;40.90;22.60;;;;;;;;;;5008331;28;20569;-73
2020/12/19 06:29:56;;;;;;;39.57;21.20;;;;;;;;;;5011951;28;20197;-73
2020/12/19 06:32:23;;;;;;;40.30;21.67;;;;;;;;;;5028841;28;20213;-73
2020/12/19 06:35:03;;;;;;;36.23;20.60;;;;;;;;;;5011823;28;20231;-73
2020/12/19 06:37:30;;;;;;;42.37;21.87;;;;;;;;;;5012156;28;21253;-74
2020/12/19 06:40:15;;;;;;;39.83;21.67;;;;;;;;;;5018336;28;20212;-73
2020/12/19 06:42:42;;;;;;;36.90;22.63;;;;;;;;;;5011541;28;20224;-73
2020/12/19 06:45:34;;;;;;;37.20;21.40;;;;;;;;;;5018064;28;20205;-74
2020/12/19 06:48:00;;;;;;;35.03;20.73;;;;;;;;;;5007413;28;20276;-74
2020/12/19 06:51:03;;;;;;;42.20;22.17;;;;;;;;;;5020845;28;20186;-74
2020/12/19 06:53:30;;;;;;;36.13;20.70;;;;;;;;;;5015157;28;20293;-73
2020/12/19 06:55:57;;;;;;;36.30;21.37;;;;;;;;;;5018691;28;20247;-73
2020/12/19 06:58:30;;;;;;;40.70;21.80;;;;;;;;;;5011952;28;20291;-73
2020/12/19 07:00:56;;;;;;;37.30;20.27;;;;;;;;;;5016051;28;20208;-74
2020/12/19 07:03:37;;;;;;;33.77;19.67;;;;;;;;;;5008841;28;20656;-73
2020/12/19 07:06:15;;;;;;;36.40;20.50;;;;;;;;;;5015197;28;20190;-73
2020/12/19 07:08:44;;;;;;;32.47;19.53;;;;;;;;;;5019449;28;20190;-74
2020/12/19 07:11:35;;;;;;;36.20;19.17;;;;;;;;;;5020055;28;20225;-72
2020/12/19 07:14:01;;;;;;;34.70;19.90;;;;;;;;;;5008798;28;20423;-73
2020/12/19 07:16:47;;;;;;;36.43;19.87;;;;;;;;;;5014414;28;20186;-74
2020/12/19 07:19:24;;;;;;;37.27;19.10;;;;;;;;;;5009024;28;20257;-74
2020/12/19 07:21:50;;;;;;;34.50;19.27;;;;;;;;;;5015470;28;20177;-73
2020/12/19 07:24:16;;;;;;;35.17;19.73;;;;;;;;;;5007064;28;20450;-73
2020/12/19 07:26:41;;;;;;;34.33;19.77;;;;;;;;;;5013458;28;20240;-75
2020/12/19 07:29:18;;;;;;;38.83;20.97;;;;;;;;;;5010347;28;20187;-73
2020/12/19 07:31:47;;;;;;;36.50;20.10;;;;;;;;;;5020595;28;20284;-73
2020/12/19 07:34:12;;;;;;;36.17;19.63;;;;;;;;;;5009839;28;20260;-74
2020/12/19 07:36:39;;;;;;;34.60;19.57;;;;;;;;;;5012171;28;20218;-74
2020/12/19 07:39:05;;;;;;;32.67;19.43;;;;;;;;;;5011446;28;20193;-74
2020/12/19 07:41:31;;;;;;;34.23;19.23;;;;;;;;;;5023849;28;20186;-73
2020/12/19 07:44:07;;;;;;;33.80;19.13;;;;;;;;;;5021746;28;20185;-73
2020/12/19 07:46:32;;;;;;;31.33;18.80;;;;;;;;;;5021228;28;20537;-73
2020/12/19 07:48:58;;;;;;;31.13;18.40;;;;;;;;;;5020799;28;20191;-73
2020/12/19 07:51:23;;;;;;;33.03;19.50;;;;;;;;;;5014747;28;20185;-73
2020/12/19 07:53:48;;;;;;;31.77;19.30;;;;;;;;;;5019975;28;20190;-74
2020/12/19 07:56:15;;;;;;;31.13;20.20;;;;;;;;;;5019461;28;20213;-74
2020/12/19 07:58:44;;;;;;;32.13;19.80;;;;;;;;;;5020997;28;20557;-74
2020/12/19 08:01:09;;;;;;;31.40;18.60;;;;;;;;;;5016998;28;20559;-74
2020/12/19 08:03:35;;;;;;;33.67;19.43;;;;;;;;;;5018879;28;20186;-74
2020/12/19 08:06:00;;;;;;;34.17;20.37;;;;;;;;;;5009073;28;20577;-74
2020/12/19 08:08:25;;;;;;;32.67;18.27;;;;;;;;;;5021840;28;20197;-74
2020/12/19 08:10:59;;;;;;;35.57;19.13;;;;;;;;;;5014166;28;20198;-73
2020/12/19 08:13:26;;;;;;;29.77;18.33;;;;;;;;;;5040824;28;20210;-73
2020/12/19 08:15:54;;;;;;;32.77;19.07;;;;;;;;;;5014166;28;20640;-74
2020/12/19 08:18:20;;;;;;;30.00;18.80;;;;;;;;;;5022394;28;20209;-73
2020/12/19 08:20:46;;;;;;;34.40;18.70;;;;;;;;;;5023197;28;20191;-73
2020/12/19 08:23:12;;;;;;;26.77;16.80;;;;;;;;;;5010798;28;20693;-73
2020/12/19 08:25:38;;;;;;;25.20;16.37;;;;;;;;;;5013229;28;20368;-74
2020/12/19 08:28:04;;;;;;;25.90;15.93;;;;;;;;;;5013025;28;20266;-73
2020/12/19 08:30:30;;;;;;;25.33;16.57;;;;;;;;;;5018147;28;20186;-73
2020/12/19 08:33:08;;;;;;;25.57;15.47;;;;;;;;;;5015391;28;20668;-74
2020/12/19 08:35:36;;;;;;;26.50;17.00;;;;;;;;;;5022523;28;20219;-73
2020/12/19 08:38:06;;;;;;;23.80;15.77;;;;;;;;;;5015518;28;20213;-74
2020/12/19 08:40:40;;;;;;;23.93;15.93;;;;;;;;;;5022433;28;20190;-73
2020/12/19 08:43:06;;;;;;;22.63;15.63;;;;;;;;;;5013960;28;20189;-74
2020/12/19 08:45:36;;;;;;;25.60;15.07;;;;;;;;;;5023471;28;20621;-74
2020/12/19 08:48:07;;;;;;;27.07;15.63;;;;;;;;;;5014394;28;20193;-73
2020/12/19 08:50:38;;;;;;;26.13;16.10;;;;;;;;;;5021171;28;20186;-74
2020/12/19 08:53:05;;;;;;;25.73;16.30;;;;;;;;;;5012219;28;20206;-75
2020/12/19 08:55:31;;;;;;;24.37;16.20;;;;;;;;;;5020523;28;20182;-74
2020/12/19 08:57:56;;;;;;;23.80;15.17;;;;;;;;;;5012731;28;20607;-74
2020/12/19 09:00:22;;;;;;;24.63;15.50;;;;;;;;;;5017799;28;20190;-74
2020/12/19 09:02:49;;;;;;;27.13;16.10;;;;;;;;;;5014819;28;20194;-73
2020/12/19 09:05:14;;;;;;;23.50;14.90;;;;;;;;;;5009162;28;20218;-74
2020/12/19 09:07:40;;;;;;;22.93;14.87;;;;;;;;;;5015976;28;20242;-74
2020/12/19 09:10:28;;;;;;;24.73;15.13;;;;;;;;;;5006725;28;20194;-76
2020/12/19 09:13:15;;;;;;;23.30;14.83;;;;;;;;;;5020461;28;20206;-72
2020/12/19 09:15:43;;;;;;;22.20;14.50;;;;;;;;;;5008936;28;20201;-74
2020/12/19 09:18:13;;;;;;;24.03;14.57;;;;;;;;;;5041744;28;20681;-74
2020/12/19 09:20:38;;;;;;;22.30;14.77;;;;;;;;;;5007648;28;20794;-74
2020/12/19 09:23:06;;;;;;;23.37;14.63;;;;;;;;;;5018559;28;20186;-74
2020/12/19 09:25:33;;;;;;;19.43;13.63;;;;;;;;;;5025485;28;20190;-75
2020/12/19 09:27:58;;;;;;;22.37;13.90;;;;;;;;;;5017289;28;20206;-74
2020/12/19 09:30:24;;;;;;;23.47;14.27;;;;;;;;;;5012593;28;20335;-73
2020/12/19 09:32:49;;;;;;;22.87;14.00;;;;;;;;;;5020986;28;20217;-74
2020/12/19 09:35:14;;;;;;;21.37;14.00;;;;;;;;;;5012099;28;20298;-74
2020/12/19 09:37:39;;;;;;;25.23;15.10;;;;;;;;;;5026901;28;20710;-75
2020/12/19 09:40:05;;;;;;;23.73;15.77;;;;;;;;;;5010004;28;20194;-73
2020/12/19 09:42:30;;;;;;;25.03;15.03;;;;;;;;;;5016582;28;20197;-74
2020/12/19 09:44:55;;;;;;;24.00;15.13;;;;;;;;;;5017627;28;20558;-73
2020/12/19 09:47:21;;;;;;;21.37;14.10;;;;;;;;;;5009663;28;20520;-73
2020/12/19 09:49:46;;;;;;;21.40;13.60;;;;;;;;;;5022100;28;20187;-74
2020/12/19 09:52:11;;;;;;;22.70;15.00;;;;;;;;;;5016695;28;20332;-74
2020/12/19 09:54:36;;;;;;;24.17;15.87;;;;;;;;;;5021168;28;20609;-74
2020/12/19 09:57:02;;;;;;;22.03;15.27;;;;;;;;;;5013114;28;20197;-73
2020/12/19 09:59:27;;;;;;;26.00;15.87;;;;;;;;;;5020930;28;20198;-75
2020/12/19 10:01:52;;;;;;;23.50;14.97;;;;;;;;;;5009829;28;20186;-74
2020/12/19 10:04:18;;;;;;;21.73;15.20;;;;;;;;;;5021882;28;20185;-74
2020/12/19 10:06:43;;;;;;;25.53;16.80;;;;;;;;;;5013483;28;20205;-75
2020/12/19 10:09:08;;;;;;;23.10;15.30;;;;;;;;;;5022948;28;20252;-76
2020/12/19 10:11:34;;;;;;;21.60;15.53;;;;;;;;;;5009518;28;20205;-74
2020/12/19 10:13:59;;;;;;;20.63;14.67;;;;;;;;;;5020117;28;20695;-74
2020/12/19 10:16:24;;;;;;;23.87;15.37;;;;;;;;;;5026809;28;20578;-74
2020/12/19 10:18:49;;;;;;;25.20;15.10;;;;;;;;;;5010645;28;20185;-73
2020/12/19 10:21:15;;;;;;;25.83;15.10;;;;;;;;;;5019670;28;20183;-74
2020/12/19 10:23:40;;;;;;;19.90;14.33;;;;;;;;;;5012163;28;20240;-74
2020/12/19 10:26:05;;;;;;;18.00;14.10;;;;;;;;;;5019941;28;20194;-74
2020/12/19 10:28:31;;;;;;;21.90;14.70;;;;;;;;;;5009201;28;20186;-75
2020/12/19 10:30:56;;;;;;;21.87;15.63;;;;;;;;;;5021364;28;20668;-75
2020/12/19 10:33:21;;;;;;;20.40;13.73;;;;;;;;;;5008631;28;20305;-74
2020/12/19 10:35:47;;;;;;;23.77;15.07;;;;;;;;;;5011287;28;20251;-75
2020/12/19 10:38:12;;;;;;;19.17;14.20;;;;;;;;;;5008863;28;20682;-74
2020/12/19 10:40:38;;;;;;;21.70;13.87;;;;;;;;;;5014217;28;20193;-74
2020/12/19 10:43:03;;;;;;;17.90;12.67;;;;;;;;;;5016867;28;20197;-74
2020/12/19 10:45:28;;;;;;;24.77;14.33;;;;;;;;;;5014018;28;20193;-73
2020/12/19 10:47:54;;;;;;;19.10;14.27;;;;;;;;;;5020625;28;20186;-74
2020/12/19 10:50:19;;;;;;;19.30;12.97;;;;;;;;;;5011181;28;20190;-73
2020/12/19 10:52:45;;;;;;;19.03;12.73;;;;;;;;;;5020358;28;20213;-73
2020/12/19 10:55:10;;;;;;;22.20;13.27;;;;;;;;;;5008291;28;20617;-73
2020/12/19 10:57:36;;;;;;;18.30;12.10;;;;;;;;;;5021412;28;20624;-73
2020/12/19 11:00:04;;;;;;;20.37;12.93;;;;;;;;;;5010171;28;20190;-73
2020/12/19 11:02:31;;;;;;;17.48;12.25;;;;;;;;;;5020159;28;20178;-75
2020/12/19 11:04:56;;;;;;;20.37;12.20;;;;;;;;;;5011367;28;21700;-74
2020/12/19 11:07:21;;;;;;;21.00;12.05;;;;;;;;;;5020634;28;20205;-74
2020/12/19 11:09:47;;;;;;;18.67;12.30;;;;;;;;;;5009023;28;20196;-73
2020/12/19 11:12:12;;;;;;;15.18;10.98;;;;;;;;;;5022336;28;20199;-74
2020/12/19 11:14:37;;;;;;;16.73;11.82;;;;;;;;;;5021116;28;20205;-74
2020/12/19 11:17:03;;;;;;;21.10;12.13;;;;;;;;;;5014868;28;20256;-74
2020/12/19 11:19:28;;;;;;;17.23;11.93;;;;;;;;;;5026242;28;20196;-74
2020/12/19 11:21:53;;;;;;;18.73;11.87;;;;;;;;;;5014777;28;20188;-74
2020/12/19 11:24:19;;;;;;;16.60;11.70;;;;;;;;;;5023786;28;20186;-74
2020/12/19 11:26:47;;;;;;;16.77;11.43;;;;;;;;;;5013910;28;20600;-74
2020/12/19 11:29:13;;;;;;;19.42;11.75;;;;;;;;;;5020017;28;20186;-74
2020/12/19 11:31:38;;;;;;;19.17;10.93;;;;;;;;;;5014112;28;20301;-75
2020/12/19 11:34:04;;;;;;;21.37;10.97;;;;;;;;;;5031153;28;20308;-75
2020/12/19 11:36:30;;;;;;;18.38;11.02;;;;;;;;;;5017703;28;20664;-74
2020/12/19 11:38:55;;;;;;;16.15;10.90;;;;;;;;;;5024619;28;20198;-74
2020/12/19 11:41:22;;;;;;;15.63;10.45;;;;;;;;;;5020341;28;20196;-74
2020/12/19 11:43:48;;;;;;;15.50;9.93;;;;;;;;;;5023265;28;20190;-74
2020/12/19 11:46:13;;;;;;;13.93;9.95;;;;;;;;;;5024911;28;20236;-74
2020/12/19 11:48:39;;;;;;;14.98;9.85;;;;;;;;;;5017210;28;20320;-74
2020/12/19 11:51:04;;;;;;;14.52;9.85;;;;;;;;;;5028332;28;20170;-74
2020/12/19 11:53:29;;;;;;;15.38;9.52;;;;;;;;;;5018760;28;20763;-74
2020/12/19 11:55:55;;;;;;;12.70;9.20;;;;;;;;;;5023520;28;20264;-74
2020/12/19 11:58:20;;;;;;;13.85;8.88;;;;;;;;;;5012004;28;20190;-75
2020/12/19 12:00:46;;;;;;;12.83;8.87;;;;;;;;;;5013218;28;20198;-74
2020/12/19 12:03:11;;;;;;;14.48;9.40;;;;;;;;;;5009328;28;20191;-74
2020/12/19 12:05:36;;;;;;;13.40;9.15;;;;;;;;;;5012718;28;20177;-74
2020/12/19 12:08:02;;;;;;;14.20;8.55;;;;;;;;;;5018156;28;20285;-74
2020/12/19 12:10:27;;;;;;;15.13;9.30;;;;;;;;;;5021782;28;20648;-74
2020/12/19 12:12:52;;;;;;;13.98;7.93;;;;;;;;;;5028763;28;20637;-72
2020/12/19 12:15:18;;;;;;;11.90;7.75;;;;;;;;;;5019506;28;20217;-73
2020/12/19 12:17:43;;;;;;;12.00;7.30;;;;;;;;;;5031739;28;20273;-73
2020/12/19 12:20:08;;;;;;;12.30;7.70;;;;;;;;;;5017811;28;20190;-72
2020/12/19 12:22:34;;;;;;;10.27;7.13;;;;;;;;;;5022999;28;20649;-74
2020/12/19 12:24:59;;;;;;;11.60;7.32;;;;;;;;;;5015313;28;20735;-74
2020/12/19 12:27:24;;;;;;;12.75;7.00;;;;;;;;;;5024502;28;20198;-73
2020/12/19 12:29:50;;;;;;;12.95;7.30;;;;;;;;;;5016921;28;20512;-73
2020/12/19 12:32:16;;;;;;;13.82;7.25;;;;;;;;;;5022999;28;20301;-73
2020/12/19 12:34:41;;;;;;;13.40;7.25;;;;;;;;;;5010704;28;20308;-73
2020/12/19 12:37:06;;;;;;;10.15;6.65;;;;;;;;;;5025911;28;20226;-72
2020/12/19 12:39:32;;;;;;;14.05;6.55;;;;;;;;;;5033320;28;20178;-74
2020/12/19 12:41:57;;;;;;;11.40;6.93;;;;;;;;;;5029754;28;20178;-72
2020/12/19 12:44:22;;;;;;;12.02;7.25;;;;;;;;;;5022944;28;20193;-72
2020/12/19 12:46:48;;;;;;;10.82;7.00;;;;;;;;;;5017406;28;20181;-71
2020/12/19 12:49:14;;;;;;;11.40;6.68;;;;;;;;;;5022699;28;20186;-72
2020/12/19 12:51:39;;;;;;;10.70;6.53;;;;;;;;;;5018273;28;20767;-73
2020/12/19 12:54:04;;;;;;;10.50;6.28;;;;;;;;;;5039444;28;20182;-73
2020/12/19 12:56:30;;;;;;;9.15;6.20;;;;;;;;;;5031560;28;21959;-72
2020/12/19 12:58:55;;;;;;;11.32;6.85;;;;;;;;;;5025496;28;20554;-75
2020/12/19 13:01:29;;;;;;;10.23;6.05;;;;;;;;;;5016940;28;20247;-73
2020/12/19 13:03:55;;;;;;;8.70;6.15;;;;;;;;;;5018268;28;20210;-73
2020/12/19 13:06:20;;;;;;;8.30;5.60;;;;;;;;;;5011044;28;20233;-73
2020/12/19 13:08:45;;;;;;;8.10;5.90;;;;;;;;;;5025082;28;20194;-73
2020/12/19 13:11:11;;;;;;;9.15;5.82;;;;;;;;;;5008851;28;20546;-73
2020/12/19 13:13:36;;;;;;;8.10;5.22;;;;;;;;;;5021947;28;20207;-74
2020/12/19 13:16:01;;;;;;;11.73;5.45;;;;;;;;;;5020439;28;20211;-73
2020/12/19 13:18:26;;;;;;;10.75;5.63;;;;;;;;;;5014554;28;20201;-73
2020/12/19 13:20:52;;;;;;;9.95;5.30;;;;;;;;;;5025923;28;20189;-73
2020/12/19 13:23:17;;;;;;;9.00;5.70;;;;;;;;;;5033020;28;21848;-74
2020/12/19 13:25:42;;;;;;;8.23;5.00;;;;;;;;;;5025894;28;20558;-74
2020/12/19 13:28:09;;;;;;;8.77;5.25;;;;;;;;;;5012400;28;20675;-73
2020/12/19 13:30:34;;;;;;;9.30;5.07;;;;;;;;;;5016543;28;20189;-74
2020/12/19 13:33:00;;;;;;;8.77;5.35;;;;;;;;;;5011158;28;20211;-73
2020/12/19 13:35:25;;;;;;;9.00;4.90;;;;;;;;;;5021831;28;20725;-73
2020/12/19 13:37:51;;;;;;;10.32;5.00;;;;;;;;;;5012147;28;20259;-73
2020/12/19 13:40:16;;;;;;;8.23;4.97;;;;;;;;;;5019282;28;20190;-74
2020/12/19 13:42:42;;;;;;;9.95;4.20;;;;;;;;;;5012749;28;20180;-73
2020/12/19 13:45:09;;;;;;;8.60;4.50;;;;;;;;;;5024160;28;20660;-72
2020/12/19 13:47:34;;;;;;;9.05;4.78;;;;;;;;;;5017188;28;20202;-72
2020/12/19 13:50:00;;;;;;;6.80;4.70;;;;;;;;;;5021761;28;20205;-72
2020/12/19 13:52:25;;;;;;;8.30;4.70;;;;;;;;;;5022744;28;20753;-74
2020/12/19 13:54:50;;;;;;;8.07;4.28;;;;;;;;;;5019971;28;20189;-74
2020/12/19 13:57:16;;;;;;;6.78;4.10;;;;;;;;;;5022930;28;20182;-74
2020/12/19 13:59:43;;;;;;;6.85;4.40;;;;;;;;;;5016645;28;20282;-74
2020/12/19 14:02:09;;;;;;;5.05;3.70;;;;;;;;;;5019998;28;20184;-74
2020/12/19 14:04:35;;;;;;;8.35;4.90;;;;;;;;;;5010233;28;20202;-75
2020/12/19 14:07:01;;;;;;;6.22;4.10;;;;;;;;;;5019942;28;20856;-75
2020/12/19 14:09:27;;;;;;;7.18;4.50;;;;;;;;;;5017836;28;20701;-74
2020/12/19 14:11:52;;;;;;;8.05;4.28;;;;;;;;;;5022404;28;20200;-74
2020/12/19 14:14:17;;;;;;;7.55;4.28;;;;;;;;;;5015994;28;20239;-74
2020/12/19 14:16:43;;;;;;;5.63;3.58;;;;;;;;;;5025033;28;20182;-72
2020/12/19 14:19:10;;;;;;;7.65;4.90;;;;;;;;;;5018108;28;20189;-73